Time;durP1;ratioP1;P1;durP2;ratioP2;P2;SDS_P1;SDS_P2;PMS_P1;PMS_P2;Temp;Humidity;BMP_temperature;BMP_pressure;BME280_temperature;BME280_humidity;BME280_pressure;Samples;Min_cycle;Max_cycle;Signal;HPM_P1;HPM_P2
2021/12/26 00:00:27;;;;;;;;;;;-9.70;99.90;;;-10.21;63.16;98547.16;5039164;28;19925;-78
2021/12/26 00:03:05;;;;;;;;;;;-9.70;99.90;;;-10.23;63.80;98554.34;5021286;28;19987;-80
2021/12/26 00:05:31;;;;;;;;;;;-9.70;99.90;;;-10.23;63.83;98549.13;5024957;28;20400;-80
2021/12/26 00:07:57;;;;;;;;;;;-9.70;99.90;;;-10.23;63.89;98559.59;5043821;28;19925;-78
2021/12/26 00:10:23;;;;;;;;;;;-9.70;99.90;;;-10.21;63.97;98555.03;5007126;28;19963;-81
2021/12/26 00:12:52;;;;;;;;;;;-9.70;99.90;;;-10.24;64.73;98550.09;5006951;28;20002;-78
2021/12/26 00:15:18;;;;;;;;;;;-9.70;99.90;;;-10.24;64.67;98547.47;5010283;28;19928;-80
2021/12/26 00:17:44;;;;;;;;;;;-9.70;99.90;;;-10.29;64.26;98548.75;5004087;28;19932;-80
2021/12/26 00:20:10;;;;;;;;;;;-9.80;99.90;;;-10.32;63.80;98546.44;5038903;28;19925;-81
2021/12/26 00:22:37;;;;;;;;;;;-9.80;99.90;;;-10.38;63.70;98541.78;5021999;28;19947;-78
2021/12/26 00:25:03;;;;;;;;;;;-9.80;99.90;;;-10.38;63.67;98546.19;5025947;28;19961;-80
2021/12/26 00:27:29;;;;;;;;;;;-9.90;99.90;;;-10.36;63.90;98544.25;5021773;28;19979;-81
2021/12/26 00:29:55;;;;;;;;;;;-9.80;99.90;;;-10.36;63.66;98542.44;5037528;28;19929;-81
2021/12/26 00:32:21;;;;;;;;;;;-9.90;99.90;;;-10.34;63.11;98543.13;5026402;28;20426;-81
2021/12/26 00:34:50;;;;;;;;;;;-9.90;99.90;;;-10.33;62.57;98552.66;5022320;28;20396;-81
2021/12/26 00:37:16;;;;;;;;;;;-9.90;99.90;;;-10.35;63.09;98540.69;5020718;28;19947;-81
2021/12/26 00:39:43;;;;;;;;;;;-9.90;99.90;;;-10.39;62.72;98545.38;5037498;28;19929;-80
2021/12/26 00:42:10;;;;;;;;;;;-9.90;99.90;;;-10.47;62.91;98545.28;5040805;28;19924;-80
2021/12/26 00:44:39;;;;;;;;;;;-9.90;99.90;;;-10.51;62.65;98536.88;5006982;28;20422;-80
2021/12/26 00:47:07;;;;;;;;;;;-10.00;99.90;;;-10.54;62.77;98542.41;5021109;28;19925;-81
2021/12/26 00:49:33;;;;;;;;;;;-10.00;99.90;;;-10.55;62.30;98530.28;5025113;28;20046;-80
2021/12/26 00:51:59;;;;;;;;;;;-10.00;99.90;;;-10.57;62.64;98539.25;5011674;28;19929;-81
2021/12/26 00:54:25;;;;;;;;;;;-10.00;99.90;;;-10.57;62.81;98541.88;5022879;28;19952;-80
2021/12/26 00:56:51;;;;;;;;;;;-10.10;99.90;;;-10.58;62.36;98535.81;5026425;28;20334;-81
2021/12/26 00:59:16;;;;;;;;;;;-10.10;99.90;;;-10.52;62.99;98552.75;5033263;28;19929;-81
2021/12/26 01:01:42;;;;;;;;;;;-10.10;99.90;;;-10.61;63.29;98543.97;5020994;28;19929;-81
2021/12/26 01:04:08;;;;;;;;;;;-10.10;99.90;;;-10.54;64.05;98552.91;5019898;28;20027;-81
2021/12/26 01:06:34;;;;;;;;;;;-10.10;99.90;;;-10.60;64.33;98547.44;5022539;28;19925;-80
2021/12/26 01:09:00;;;;;;;;;;;-10.10;99.90;;;-10.56;63.70;98546.16;5007814;28;19930;-78
2021/12/26 01:11:42;;;;;;;;;;;-10.10;99.90;;;-10.56;63.16;98543.53;5021945;28;19984;-80
2021/12/26 01:14:10;;;;;;;;;;;-10.10;99.90;;;-10.67;62.69;98546.34;5028509;28;19929;-81
2021/12/26 01:16:37;;;;;;;;;;;-10.20;99.90;;;-10.71;62.96;98545.78;5022891;28;20039;-81
2021/12/26 01:19:09;;;;;;;;;;;-10.20;99.90;;;-10.76;62.48;98548.03;5024405;28;19935;-80
2021/12/26 01:21:35;;;;;;;;;;;-10.20;99.90;;;-10.80;62.44;98547.50;5022123;28;19925;-81
2021/12/26 01:24:07;;;;;;;;;;;-10.20;99.90;;;-10.80;62.44;98537.03;5008409;28;20441;-78
2021/12/26 01:26:33;;;;;;;;;;;-10.30;99.90;;;-10.82;62.93;98535.50;5021728;28;19933;-81
2021/12/26 01:28:58;;;;;;;;;;;-10.30;99.90;;;-10.87;61.77;98532.50;5017910;28;19925;-80
2021/12/26 01:31:25;;;;;;;;;;;-10.30;99.90;;;-10.90;61.93;98530.19;5035991;28;20323;-81
2021/12/26 01:33:56;;;;;;;;;;;-10.40;99.90;;;-10.89;62.02;98531.81;5035934;28;19943;-81
2021/12/26 01:36:22;;;;;;;;;;;-10.40;99.90;;;-10.93;62.42;98526.03;5024587;28;19951;-80
2021/12/26 01:38:48;;;;;;;;;;;-10.40;99.90;;;-10.98;62.74;98534.34;5029420;28;20035;-80
2021/12/26 01:41:16;;;;;;;;;;;-10.50;99.90;;;-10.98;63.81;98529.09;5024549;28;19963;-80
2021/12/26 01:43:45;;;;;;;;;;;-10.40;99.90;;;-10.97;64.28;98528.09;5019748;28;19943;-80
2021/12/26 01:46:12;;;;;;;;;;;-10.40;99.90;;;-10.96;63.88;98521.09;5021869;28;19968;-80
2021/12/26 01:48:37;;;;;;;;;;;-10.40;99.90;;;-10.97;63.93;98519.44;5009240;28;19971;-80
2021/12/26 01:51:03;;;;;;;;;;;-10.50;99.90;;;-10.96;64.04;98521.09;5028065;28;19925;-80
2021/12/26 01:53:36;;;;;;;;;;;-10.50;99.90;;;-10.94;63.74;98513.91;5017899;28;19956;-78
2021/12/26 01:56:03;;;;;;;;;;;-10.40;99.90;;;-10.90;63.19;98520.50;5036255;28;19929;-80
2021/12/26 01:58:29;;;;;;;;;;;-10.40;99.90;;;-10.89;63.05;98521.34;5034713;28;20019;-80
2021/12/26 02:00:57;;;;;;;;;;;-10.50;99.90;;;-10.89;62.86;98522.16;5021639;28;20376;-81
2021/12/26 02:03:23;;;;;;;;;;;-10.40;99.90;;;-10.93;62.71;98521.63;5019395;28;19925;-81
2021/12/26 02:05:49;;;;;;;;;;;-10.40;99.90;;;-10.98;63.05;98521.22;5016983;28;19925;-81
2021/12/26 02:08:17;;;;;;;;;;;-10.40;99.90;;;-10.92;63.18;98523.25;5038575;28;19998;-81
2021/12/26 02:10:42;;;;;;;;;;;-10.50;99.90;;;-10.99;63.03;98524.00;5026958;28;19929;-80
2021/12/26 02:13:08;;;;;;;;;;;-10.50;99.90;;;-11.02;63.05;98534.75;5035070;28;20705;-80
2021/12/26 02:15:34;;;;;;;;;;;-10.50;99.90;;;-11.03;63.52;98533.94;5023024;28;19929;-80
2021/12/26 02:18:00;;;;;;;;;;;-10.50;99.90;;;-11.05;63.48;98541.09;5018499;28;19941;-80
2021/12/26 02:21:31;;;;;;;;;;;-10.50;99.90;;;-11.01;64.07;98531.19;5019135;28;19925;-80
2021/12/26 02:23:29;;;;;;;;;;;-10.50;99.90;;;-10.98;64.05;98525.66;5018958;28;19940;-80
2021/12/26 02:28:25;;;;;;;;;;;-10.50;99.90;;;-11.03;62.73;98535.75;5035550;28;19966;-81
2021/12/26 02:30:51;;;;;;;;;;;-10.50;99.90;;;-11.07;62.66;98535.19;5020809;28;20019;-80
2021/12/26 02:33:18;;;;;;;;;;;-10.50;99.90;;;-11.16;62.49;98536.88;5020623;28;19933;-80
2021/12/26 02:35:45;;;;;;;;;;;-10.50;99.90;;;-11.13;62.67;98532.31;5005029;28;20590;-81
2021/12/26 02:38:10;;;;;;;;;;;-10.60;99.90;;;-11.13;62.19;98534.94;5004663;28;20379;-81
2021/12/26 02:40:36;;;;;;;;;;;-10.60;99.90;;;-11.16;62.49;98534.25;5016367;28;19929;-81
2021/12/26 02:43:03;;;;;;;;;;;-10.60;99.90;;;-11.18;62.58;98525.72;5026434;28;20365;-81
2021/12/26 02:45:31;;;;;;;;;;;-10.60;99.90;;;-11.18;61.91;98515.22;5002221;28;20106;-80
2021/12/26 02:47:57;;;;;;;;;;;-10.60;99.90;;;-11.20;62.18;98518.97;5018444;28;19928;-81
2021/12/26 02:50:25;;;;;;;;;;;-10.60;99.90;;;-11.22;62.43;98519.13;5017111;28;19960;-81
2021/12/26 02:52:51;;;;;;;;;;;-10.70;99.90;;;-11.24;62.92;98522.84;5026007;28;19967;-80
2021/12/26 02:55:18;;;;;;;;;;;-10.70;99.90;;;-11.25;63.96;98526.41;5022525;28;20016;-80
2021/12/26 02:57:48;;;;;;;;;;;-10.70;99.90;;;-11.17;63.74;98526.53;5026128;28;19931;-81
2021/12/26 03:00:16;;;;;;;;;;;-10.70;99.90;;;-11.16;62.97;98530.81;5016995;28;19929;-81
2021/12/26 03:02:43;;;;;;;;;;;-10.70;99.90;;;-11.18;62.31;98525.72;5007648;28;19964;-80
2021/12/26 03:05:09;;;;;;;;;;;-10.70;99.90;;;-11.25;62.30;98524.63;5006151;28;20019;-81
2021/12/26 03:07:35;;;;;;;;;;;-10.70;99.90;;;-11.28;62.01;98534.56;5032408;28;19936;-81
2021/12/26 03:10:01;;;;;;;;;;;-10.70;99.90;;;-11.28;62.19;98532.75;5021488;28;19928;-81
2021/12/26 03:12:29;;;;;;;;;;;-10.80;99.90;;;-11.33;61.66;98527.13;5023330;28;20019;-81
2021/12/26 03:14:54;;;;;;;;;;;-10.80;99.90;;;-11.35;61.51;98536.91;5023191;28;19929;-80
2021/12/26 03:17:20;;;;;;;;;;;-10.90;99.90;;;-11.42;61.53;98539.28;5033152;28;19932;-81
2021/12/26 03:19:46;;;;;;;;;;;-10.90;99.90;;;-11.34;61.43;98548.22;5020910;28;20330;-80
2021/12/26 03:22:14;;;;;;;;;;;-10.90;99.90;;;-11.38;61.15;98548.50;5021110;28;19933;-81
2021/12/26 03:24:44;;;;;;;;;;;-10.90;99.90;;;-11.38;61.48;98547.66;5034249;28;19945;-81
2021/12/26 03:27:10;;;;;;;;;;;-10.90;99.90;;;-11.37;61.51;98549.31;5033330;28;19935;-81
2021/12/26 03:29:36;;;;;;;;;;;-10.90;99.90;;;-11.41;62.27;98550.56;5019595;28;19939;-78
2021/12/26 03:32:06;;;;;;;;;;;-10.90;99.90;;;-11.42;62.67;98546.28;5006593;28;19933;-80
2021/12/26 03:34:32;;;;;;;;;;;-10.90;99.90;;;-11.36;62.54;98545.75;5019842;28;19964;-81
2021/12/26 03:36:58;;;;;;;;;;;-10.90;99.90;;;-11.34;62.28;98553.47;5036725;28;20430;-81
2021/12/26 03:39:24;;;;;;;;;;;-10.90;99.90;;;-11.41;62.17;98547.94;5004021;28;20345;-80
2021/12/26 03:41:50;;;;;;;;;;;-10.90;99.90;;;-11.43;61.73;98544.66;5008256;28;20023;-81
2021/12/26 03:44:16;;;;;;;;;;;-10.90;99.90;;;-11.40;61.25;98549.59;5007636;28;19931;-81
2021/12/26 03:46:43;;;;;;;;;;;-10.90;99.90;;;-11.41;60.87;98546.16;5021362;28;19932;-81
2021/12/26 03:49:09;;;;;;;;;;;-10.90;99.90;;;-11.47;60.82;98544.13;5000697;28;20534;-81
2021/12/26 03:51:35;;;;;;;;;;;-11.00;99.90;;;-11.47;60.80;98551.13;5020946;28;19932;-81
2021/12/26 03:54:03;;;;;;;;;;;-11.00;99.90;;;-11.55;60.84;98549.19;5026218;28;19929;-81
2021/12/26 03:56:31;;;;;;;;;;;-11.00;99.90;;;-11.56;61.72;98554.59;5004772;28;20408;-81
2021/12/26 03:58:58;;;;;;;;;;;-11.00;99.90;;;-11.54;61.50;98550.88;5022804;28;19928;-81
2021/12/26 04:01:27;;;;;;;;;;;-11.00;99.90;;;-11.51;62.04;98547.16;5016150;28;19928;-81
2021/12/26 04:03:53;;;;;;;;;;;-11.10;99.90;;;-11.54;61.96;98555.28;5021886;28;19928;-81
2021/12/26 04:06:19;;;;;;;;;;;-11.00;99.90;;;-11.63;61.94;98557.75;5037229;28;20449;-81
2021/12/26 04:08:45;;;;;;;;;;;-11.00;99.90;;;-11.66;62.05;98565.06;5036019;28;19983;-81
2021/12/26 04:11:11;;;;;;;;;;;-11.10;99.90;;;-11.63;62.03;98565.59;5008250;28;19928;-81
2021/12/26 04:13:37;;;;;;;;;;;-11.10;99.90;;;-11.64;61.80;98569.19;5037804;28;19929;-81
2021/12/26 04:16:03;;;;;;;;;;;-11.10;99.90;;;-11.60;61.58;98567.97;5012330;28;20465;-78
2021/12/26 04:18:29;;;;;;;;;;;-11.10;99.90;;;-11.54;61.24;98563.94;5017819;28;20037;-78
2021/12/26 04:20:54;;;;;;;;;;;-11.10;99.90;;;-11.66;61.60;98571.13;5010895;28;19929;-80
2021/12/26 04:23:20;;;;;;;;;;;-11.10;99.90;;;-11.68;60.96;98567.81;5010052;28;19925;-80
2021/12/26 04:25:47;;;;;;;;;;;-11.10;99.90;;;-11.74;60.72;98570.97;5009114;28;20015;-81
2021/12/26 04:28:17;;;;;;;;;;;-11.20;99.90;;;-11.75;60.91;98577.19;5022701;28;19928;-80
2021/12/26 04:30:46;;;;;;;;;;;-11.20;99.90;;;-11.80;61.20;98574.16;5006391;28;19952;-81
2021/12/26 04:33:12;;;;;;;;;;;-11.20;99.90;;;-11.82;61.19;98581.31;5007982;28;19979;-81
2021/12/26 04:35:38;;;;;;;;;;;-11.20;99.90;;;-11.87;61.61;98576.53;5021743;28;20364;-81
2021/12/26 04:38:04;;;;;;;;;;;-11.30;99.90;;;-11.83;61.08;98584.88;5023590;28;19936;-81
2021/12/26 04:40:30;;;;;;;;;;;-11.30;99.90;;;-11.83;60.99;98583.09;5021815;28;19932;-81
2021/12/26 04:42:56;;;;;;;;;;;-11.30;99.90;;;-11.84;61.10;98585.84;5023095;28;19981;-81
2021/12/26 04:45:22;;;;;;;;;;;-11.30;99.90;;;-11.86;61.04;98583.34;5024802;28;20956;-81
2021/12/26 04:47:49;;;;;;;;;;;-11.30;99.90;;;-11.88;61.69;98585.34;5020302;28;20673;-81
2021/12/26 04:50:18;;;;;;;;;;;-11.30;99.90;;;-11.90;61.92;98591.66;5038423;28;19928;-81
2021/12/26 04:52:45;;;;;;;;;;;-11.30;99.90;;;-11.88;61.78;98589.72;5040427;28;19929;-81
2021/12/26 04:55:12;;;;;;;;;;;-11.30;99.90;;;-11.84;62.04;98591.09;5009174;28;19964;-80
2021/12/26 04:57:38;;;;;;;;;;;-11.30;99.90;;;-11.83;62.31;98590.09;5005429;28;19931;-80
2021/12/26 05:00:06;;;;;;;;;;;-11.30;99.90;;;-11.89;63.01;98590.69;5038156;28;19928;-80
2021/12/26 05:02:35;;;;;;;;;;;-11.30;99.90;;;-11.77;63.17;98601.84;5050693;28;20797;-80
2021/12/26 05:05:02;;;;;;;;;;;-11.30;99.90;;;-11.77;62.88;98600.03;5029082;28;19932;-80
2021/12/26 05:07:28;;;;;;;;;;;-11.30;99.90;;;-11.77;63.05;98605.28;5023071;28;20401;-78
2021/12/26 05:09:54;;;;;;;;;;;-11.30;99.90;;;-11.82;62.99;98607.47;5021416;28;19931;-80
2021/12/26 05:12:22;;;;;;;;;;;-11.30;99.90;;;-11.86;63.34;98604.28;5025008;28;20256;-80
2021/12/26 05:14:48;;;;;;;;;;;-11.20;99.90;;;-11.77;63.42;98597.44;5007334;28;19925;-80
2021/12/26 05:17:14;;;;;;;;;;;-11.20;99.90;;;-11.77;62.95;98600.03;5021838;28;20011;-78
2021/12/26 05:19:40;;;;;;;;;;;-11.20;99.90;;;-11.77;62.48;98592.19;5020770;28;19928;-80
2021/12/26 05:22:06;;;;;;;;;;;-11.20;99.90;;;-11.72;61.67;98594.41;5023728;28;19924;-81
2021/12/26 05:24:32;;;;;;;;;;;-11.20;99.90;;;-11.76;61.62;98596.44;5041044;28;20396;-80
2021/12/26 05:26:58;;;;;;;;;;;-11.30;99.90;;;-11.83;61.57;98590.97;5007226;28;19935;-81
2021/12/26 05:29:24;;;;;;;;;;;-11.20;99.90;;;-11.88;61.67;98587.97;5020602;28;19925;-80
2021/12/26 05:31:50;;;;;;;;;;;-11.30;99.90;;;-11.91;61.46;98590.00;5010618;28;20031;-81
2021/12/26 05:34:16;;;;;;;;;;;-11.30;99.90;;;-11.96;61.30;98589.59;5022666;28;19925;-80
2021/12/26 05:36:42;;;;;;;;;;;-11.40;99.90;;;-12.00;60.97;98578.56;5023434;28;19936;-80
2021/12/26 05:39:07;;;;;;;;;;;-11.30;99.90;;;-12.02;61.08;98588.34;5021467;28;19928;-81
2021/12/26 05:41:33;;;;;;;;;;;-11.40;99.90;;;-11.96;60.87;98586.97;5034440;28;19931;-80
2021/12/26 05:43:59;;;;;;;;;;;-11.40;99.90;;;-11.98;61.00;98581.91;5006251;28;20276;-80
2021/12/26 05:46:25;;;;;;;;;;;-11.40;99.90;;;-11.94;61.02;98582.44;5037555;28;20040;-80
2021/12/26 05:48:51;;;;;;;;;;;-11.50;99.90;;;-11.93;61.01;98584.94;5023596;28;19929;-83
2021/12/26 05:51:17;;;;;;;;;;;-11.40;99.90;;;-11.88;61.27;98592.34;5036033;28;20324;-82
2021/12/26 05:53:43;;;;;;;;;;;-11.40;99.90;;;-11.76;60.90;98591.22;5004629;28;19925;-82
2021/12/26 05:56:09;;;;;;;;;;;-11.40;99.90;;;-11.75;60.46;98595.50;5019976;28;20416;-82
2021/12/26 05:58:35;;;;;;;;;;;-11.30;99.90;;;-11.80;60.81;98595.91;5023355;28;19952;-82
2021/12/26 06:01:01;;;;;;;;;;;-11.30;99.90;;;-11.75;61.16;98605.97;5019625;28;19931;-82
2021/12/26 06:03:27;;;;;;;;;;;-11.20;99.90;;;-11.76;61.29;98600.88;5037587;28;20372;-82
2021/12/26 06:05:52;;;;;;;;;;;-11.20;99.90;;;-11.70;60.45;98601.16;5004172;28;20407;-82
2021/12/26 06:08:18;;;;;;;;;;;-11.10;99.90;;;-11.68;60.08;98601.00;5007375;28;19963;-82
2021/12/26 06:10:44;;;;;;;;;;;-11.20;99.90;;;-11.75;60.04;98600.75;5025944;28;19939;-82
2021/12/26 06:13:10;;;;;;;;;;;-11.20;99.90;;;-11.78;59.93;98600.16;5007627;28;19932;-82
2021/12/26 06:15:36;;;;;;;;;;;-11.20;99.90;;;-11.82;60.03;98604.84;5020410;28;19940;-82
2021/12/26 06:18:05;;;;;;;;;;;-11.20;99.90;;;-11.77;60.07;98602.66;5025396;28;20767;-82
2021/12/26 06:20:31;;;;;;;;;;;-11.30;99.90;;;-11.75;60.15;98605.97;5019547;28;20418;-82
2021/12/26 06:22:57;;;;;;;;;;;-11.20;99.90;;;-11.77;60.79;98615.75;5006776;28;20729;-81
2021/12/26 06:25:23;;;;;;;;;;;-11.20;99.90;;;-11.74;60.49;98606.78;5003737;28;19924;-81
2021/12/26 06:27:48;;;;;;;;;;;-11.20;99.90;;;-11.75;60.90;98608.59;5018033;28;19925;-81
2021/12/26 06:30:14;;;;;;;;;;;-11.20;99.90;;;-11.77;61.39;98610.50;5053824;28;19974;-81
2021/12/26 06:32:40;;;;;;;;;;;-11.20;99.90;;;-11.78;61.70;98605.41;5017505;28;19971;-81
2021/12/26 06:35:08;;;;;;;;;;;-11.20;99.90;;;-11.82;61.30;98608.28;5034064;28;19936;-81
2021/12/26 06:37:35;;;;;;;;;;;-11.20;99.90;;;-11.83;61.53;98614.50;5020169;28;20576;-82
2021/12/26 06:40:01;;;;;;;;;;;-11.20;99.90;;;-11.75;61.59;98610.34;5021434;28;19932;-82
2021/12/26 06:42:29;;;;;;;;;;;-11.20;99.90;;;-11.72;60.97;98617.97;5003667;28;20366;-81
2021/12/26 06:44:55;;;;;;;;;;;-11.20;99.90;;;-11.78;60.48;98616.69;5034139;28;20200;-82
2021/12/26 06:47:22;;;;;;;;;;;-11.20;99.90;;;-11.71;61.79;98616.97;4994611;28;20422;-82
2021/12/26 06:49:48;;;;;;;;;;;-11.10;99.90;;;-11.70;61.68;98616.84;5016475;28;19967;-82
2021/12/26 06:52:14;;;;;;;;;;;-11.20;99.90;;;-11.64;61.59;98621.53;5000335;28;20072;-81
2021/12/26 06:54:40;;;;;;;;;;;-11.10;99.90;;;-11.68;60.87;98614.09;5000113;28;20367;-82
2021/12/26 06:57:06;;;;;;;;;;;-11.10;99.90;;;-11.77;61.07;98610.50;5015314;28;19943;-81
2021/12/26 06:59:32;;;;;;;;;;;-11.10;99.90;;;-11.75;61.36;98616.44;5019975;28;19939;-82
2021/12/26 07:01:58;;;;;;;;;;;-11.10;99.90;;;-11.73;62.15;98616.28;4999896;28;19972;-82
2021/12/26 07:04:24;;;;;;;;;;;-11.10;99.90;;;-11.63;61.60;98624.97;5019314;28;20331;-82
2021/12/26 07:06:50;;;;;;;;;;;-11.10;99.90;;;-11.59;60.92;98635.03;5001806;28;20012;-82
2021/12/26 07:09:16;;;;;;;;;;;-11.00;99.90;;;-11.48;61.65;98635.84;5021328;28;19936;-81
2021/12/26 07:11:41;;;;;;;;;;;-11.00;99.90;;;-11.47;62.58;98640.13;4999178;28;19928;-81
2021/12/26 07:14:08;;;;;;;;;;;-10.90;99.90;;;-11.45;62.61;98646.88;5018935;28;20023;-81
2021/12/26 07:16:34;;;;;;;;;;;-10.80;99.90;;;-11.37;61.17;98644.41;5021817;28;19943;-80
2021/12/26 07:18:59;;;;;;;;;;;-10.80;99.90;;;-11.31;61.46;98639.59;5017566;28;20323;-81
2021/12/26 07:21:26;;;;;;;;;;;-10.80;99.90;;;-11.40;61.43;98641.22;5017271;28;20295;-82
2021/12/26 07:23:51;;;;;;;;;;;-10.70;99.90;;;-11.37;60.65;98643.56;5017003;28;19929;-80
2021/12/26 07:26:17;;;;;;;;;;;-10.70;99.90;;;-11.32;60.51;98638.75;5017436;28;19929;-80
2021/12/26 07:28:43;;;;;;;;;;;-10.70;99.90;;;-11.28;61.04;98647.97;5002108;28;20034;-80
2021/12/26 07:31:09;;;;;;;;;;;-10.70;99.90;;;-11.25;60.38;98644.25;5018365;28;19928;-81
2021/12/26 07:33:35;;;;;;;;;;;-10.60;99.90;;;-11.17;60.92;98655.69;5016703;28;20006;-80
2021/12/26 07:36:02;;;;;;;;;;;-10.60;99.90;;;-11.00;60.36;98659.38;5018141;28;19967;-80
2021/12/26 07:38:28;;;;;;;;;;;-10.40;99.90;;;-10.91;61.47;98655.13;5019858;28;19929;-80
2021/12/26 07:40:54;;;;;;;;;;;-10.40;99.90;;;-10.75;60.97;98657.13;5050724;28;20366;-80
2021/12/26 07:43:20;;;;;;;;;;;-10.30;99.90;;;-10.69;60.71;98660.97;5022816;28;20052;-80
2021/12/26 07:45:46;;;;;;;;;;;-10.10;99.90;;;-10.59;60.97;98667.84;5041150;28;20157;-80
2021/12/26 07:48:12;;;;;;;;;;;-10.00;99.90;;;-10.43;60.69;98669.88;5008325;28;20528;-80
2021/12/26 07:50:38;;;;;;;;;;;-9.90;99.90;;;-10.24;60.35;98670.75;5016473;28;20424;-80
2021/12/26 07:53:10;;;;;;;;;;;-9.80;99.90;;;-10.24;60.46;98681.25;5019158;28;19924;-80
2021/12/26 07:55:36;;;;;;;;;;;-9.70;99.90;;;-10.13;59.91;98675.78;5009322;28;19935;-81
2021/12/26 07:58:02;;;;;;;;;;;-9.60;99.90;;;-10.03;59.93;98667.88;5020850;28;19933;-80
2021/12/26 08:00:28;;;;;;;;;;;-9.50;99.90;;;-9.92;60.38;98667.66;5023834;28;19932;-80
2021/12/26 08:02:55;;;;;;;;;;;-9.40;99.90;;;-9.76;59.88;98670.50;5004222;28;19929;-80
2021/12/26 08:05:21;;;;;;;;;;;-9.30;99.90;;;-9.85;60.70;98669.56;5034609;28;19967;-81
2021/12/26 08:07:47;;;;;;;;;;;-9.20;99.90;;;-9.85;61.37;98666.94;5004482;28;19925;-80
2021/12/26 08:10:12;;;;;;;;;;;-9.20;99.90;;;-9.77;61.27;98675.88;5020629;28;20023;-80
2021/12/26 08:12:39;;;;;;;;;;;-9.10;99.90;;;-9.69;61.39;98662.84;5021064;28;20007;-80
2021/12/26 08:15:05;;;;;;;;;;;-9.00;99.90;;;-9.63;61.14;98664.88;5019439;28;19936;-80
2021/12/26 08:17:31;;;;;;;;;;;-9.00;99.90;;;-9.56;61.27;98667.75;5019253;28;19939;-80
2021/12/26 08:19:57;;;;;;;;;;;-8.90;99.90;;;-9.50;61.69;98662.72;5021525;28;20019;-80
2021/12/26 08:22:23;;;;;;;;;;;-8.80;99.90;;;-9.41;61.06;98659.22;5035202;28;19928;-80
2021/12/26 08:24:49;;;;;;;;;;;-8.70;99.90;;;-9.30;60.54;98658.16;5016666;28;20299;-80
2021/12/26 08:27:15;;;;;;;;;;;-8.60;99.90;;;-9.22;60.10;98660.03;5023369;28;19967;-80
2021/12/26 08:29:41;;;;;;;;;;;-8.60;99.90;;;-9.09;60.61;98665.72;5020632;28;19932;-80
2021/12/26 08:32:11;;;;;;;;;;;-8.50;99.90;;;-9.01;60.55;98668.41;5019209;28;19929;-80
2021/12/26 08:34:37;;;;;;;;;;;-8.50;99.90;;;-8.96;60.35;98667.94;5035686;28;20012;-80
2021/12/26 08:37:03;;;;;;;;;;;-8.40;99.90;;;-8.93;60.77;98670.25;5022694;28;20184;-80
2021/12/26 08:39:34;;;;;;;;;;;-8.30;99.90;;;-8.86;60.98;98676.56;5007363;28;19974;-80
2021/12/26 08:42:00;;;;;;;;;;;-8.20;99.90;;;-8.77;60.78;98674.84;5035042;28;19929;-80
2021/12/26 08:44:25;;;;;;;;;;;-8.10;99.90;;;-8.65;60.27;98678.88;5021969;28;19974;-80
2021/12/26 08:46:52;;;;;;;;;;;-8.10;99.90;;;-8.59;61.03;98678.25;5024206;28;19933;-80
2021/12/26 08:49:18;;;;;;;;;;;-8.00;99.90;;;-8.46;61.39;98677.00;5038521;28;20031;-80
2021/12/26 08:51:44;;;;;;;;;;;-7.90;99.90;;;-8.36;61.31;98675.88;5033973;28;20299;-80
2021/12/26 08:54:10;;;;;;;;;;;-7.80;99.90;;;-8.24;61.53;98673.81;5019605;28;20001;-80
2021/12/26 08:56:37;;;;;;;;;;;-7.70;99.90;;;-8.11;61.71;98671.56;5005653;28;19929;-80
2021/12/26 08:59:02;;;;;;;;;;;-7.60;99.90;;;-7.94;61.48;98671.63;5043372;28;20411;-80
2021/12/26 09:01:28;;;;;;;;;;;-7.40;99.90;;;-7.96;61.57;98668.31;5016132;28;19929;-80
2021/12/26 09:03:54;;;;;;;;;;;-7.40;99.90;;;-7.90;61.66;98668.53;5008382;28;19987;-80
2021/12/26 09:06:20;;;;;;;;;;;-7.30;99.90;;;-7.80;62.17;98668.41;5019742;28;19936;-80
2021/12/26 09:08:46;;;;;;;;;;;-7.20;99.90;;;-7.63;62.13;98669.28;5019311;28;19928;-80
2021/12/26 09:11:12;;;;;;;;;;;-7.10;99.90;;;-7.49;61.91;98673.09;5022589;28;20397;-80
2021/12/26 09:13:38;;;;;;;;;;;-6.90;99.90;;;-7.37;62.01;98663.91;5000864;28;19974;-80
2021/12/26 09:16:04;;;;;;;;;;;-6.80;99.90;;;-7.23;61.92;98657.16;5000576;28;19929;-80
2021/12/26 09:18:30;;;;;;;;;;;-6.70;99.90;;;-7.08;62.04;98670.50;5016672;28;20482;-80
2021/12/26 09:20:56;;;;;;;;;;;-6.60;99.90;;;-6.94;62.29;98663.78;5037598;28;19929;-81
2021/12/26 09:23:24;;;;;;;;;;;-6.50;99.90;;;-6.81;62.35;98662.28;5004292;28;19958;-81
2021/12/26 09:25:51;;;;;;;;;;;-6.30;99.90;;;-6.71;62.31;98659.47;5023459;28;20019;-81
2021/12/26 09:28:16;;;;;;;;;;;-6.20;99.90;;;-6.57;62.49;98658.75;5024000;28;20280;-81
2021/12/26 09:30:42;;;;;;;;;;;-6.00;99.90;;;-6.46;63.21;98654.13;5027713;28;19933;-81
2021/12/26 09:33:08;;;;;;;;;;;-5.90;99.90;;;-6.38;63.27;98648.84;5024359;28;20041;-82
2021/12/26 09:35:34;;;;;;;;;;;-5.80;99.90;;;-6.25;64.14;98649.13;5022446;28;19951;-81
2021/12/26 09:38:00;;;;;;;;;;;-5.60;99.90;;;-6.15;64.11;98648.94;5038902;28;19932;-81
2021/12/26 09:40:26;;;;;;;;;;;-5.50;99.90;;;-5.89;64.67;98638.06;5035524;28;20032;-81
2021/12/26 09:42:52;;;;;;;;;;;-5.40;99.90;;;-5.79;64.34;98637.88;5021297;28;19933;-81
2021/12/26 09:45:18;;;;;;;;;;;-5.20;99.90;;;-5.68;64.54;98642.75;5019365;28;19933;-82
2021/12/26 09:47:45;;;;;;;;;;;-5.10;99.90;;;-5.56;64.64;98633.44;5028568;28;19944;-81
2021/12/26 09:50:13;;;;;;;;;;;-5.00;99.90;;;-5.45;64.75;98624.28;5022693;28;19925;-82
2021/12/26 09:52:45;;;;;;;;;;;-4.80;99.90;;;-5.34;64.65;98623.88;5022369;28;20287;-82
2021/12/26 09:55:12;;;;;;;;;;;-4.80;99.90;;;-5.20;64.88;98616.19;5024063;28;20372;-82
2021/12/26 09:57:38;;;;;;;;;;;-4.60;99.90;;;-5.12;64.86;98609.00;5026281;28;19929;-82
2021/12/26 10:00:22;;;;;;;;;;;-4.50;99.90;;;-4.87;64.63;98609.63;5021460;28;19929;-82
2021/12/26 10:03:07;;;;;;;;;;;-4.40;99.90;;;-4.80;64.85;98618.47;5051701;28;19975;-82
2021/12/26 10:05:59;;;;;;;;;;;-4.20;99.90;;;-4.63;64.83;98611.22;5033268;28;20399;-82
2021/12/26 10:08:25;;;;;;;;;;;-4.10;99.90;;;-4.44;64.99;98606.38;5046622;28;20374;-82
2021/12/26 10:11:14;;;;;;;;;;;-3.90;99.90;;;-4.29;64.22;98609.03;5020054;28;19929;-82
2021/12/26 10:13:44;;;;;;;;;;;-3.80;99.90;;;-4.12;64.27;98604.34;5016122;28;19928;-82
2021/12/26 10:16:10;;;;;;;;;;;-3.70;99.90;;;-4.15;64.77;98605.56;5028893;28;19932;-82
2021/12/26 10:18:40;;;;;;;;;;;-3.70;99.90;;;-4.16;64.53;98609.22;5035567;28;20045;-82
2021/12/26 10:21:29;;;;;;;;;;;-3.60;99.90;;;-4.04;63.72;98606.94;5020151;28;19928;-81
2021/12/26 10:24:03;;;;;;;;;;;-3.60;99.90;;;-4.00;63.98;98605.53;5029671;28;20027;-82
2021/12/26 10:26:30;;;;;;;;;;;-3.50;99.90;;;-3.87;64.09;98612.81;5020891;28;19928;-82
2021/12/26 10:29:04;;;;;;;;;;;-3.40;99.90;;;-3.73;64.18;98615.47;5003223;28;20023;-82
2021/12/26 10:31:30;;;;;;;;;;;-3.30;99.90;;;-3.65;64.07;98614.53;5001429;28;20011;-82
2021/12/26 10:33:56;;;;;;;;;;;-3.20;99.90;;;-3.61;64.02;98618.47;5019462;28;19959;-82
2021/12/26 10:36:21;;;;;;;;;;;-3.10;99.90;;;-3.61;63.50;98620.25;5013894;28;19940;-82
2021/12/26 10:39:09;;;;;;;;;;;-3.00;99.90;;;-3.62;63.24;98622.09;5021943;28;20059;-81
2021/12/26 10:41:42;;;;;;;;;;;-2.90;99.90;;;-3.63;63.20;98620.47;4999534;28;19932;-81
2021/12/26 10:44:30;;;;;;;;;;;-2.90;99.90;;;-3.54;63.51;98618.50;5010755;28;20311;-81
2021/12/26 10:46:59;;;;;;;;;;;-2.90;99.90;;;-3.46;62.35;98614.91;4994595;28;20342;-81
2021/12/26 10:49:30;;;;;;;;;;;-2.80;99.90;;;-3.38;62.45;98615.63;4999182;28;20023;-81
2021/12/26 10:51:56;;;;;;;;;;;-2.80;99.90;;;-3.35;62.19;98607.28;5013166;28;19947;-81
2021/12/26 10:54:25;;;;;;;;;;;-2.70;99.90;;;-3.33;61.22;98610.59;5017562;28;19939;-81
2021/12/26 10:57:03;;;;;;;;;;;-2.70;99.90;;;-3.31;60.97;98613.88;5017480;28;19925;-81
2021/12/26 10:59:28;;;;;;;;;;;-2.70;99.90;;;-3.32;61.31;98612.22;5013332;28;19934;-81
2021/12/26 11:01:56;;;;;;;;;;;-2.70;99.90;;;-3.24;61.54;98621.06;5006910;28;19982;-81
2021/12/26 11:04:25;;;;;;;;;;;-2.70;99.90;;;-3.21;62.26;98626.81;5014591;28;20899;-81
2021/12/26 11:07:01;;;;;;;;;;;-2.60;99.90;;;-3.23;62.01;98620.88;5022738;28;19951;-81
2021/12/26 11:09:27;;;;;;;;;;;-2.60;99.90;;;-3.16;61.53;98615.63;5035472;28;19933;-81